sensor_id;sensor_type;location;lat;lon;timestamp;P1;durP1;ratioP1;P2;durP2;ratioP2
56824;SDS011;42705;50.326;18.772;2024-01-27T00:00:00;9.00;;;0.60;;
56824;SDS011;42705;50.326;18.772;2024-01-27T00:05:23;3.80;;;1.20;;
56824;SDS011;42705;50.326;18.772;2024-01-27T00:10:44;2.50;;;0.60;;
56824;SDS011;42705;50.326;18.772;2024-01-27T00:16:08;7.60;;;0.70;;
56824;SDS011;42705;50.326;18.772;2024-01-27T00:21:30;2.60;;;0.70;;
56824;SDS011;42705;50.326;18.772;2024-01-27T00:26:52;3.20;;;0.80;;
56824;SDS011;42705;50.326;18.772;2024-01-27T00:32:14;5.00;;;1.00;;
56824;SDS011;42705;50.326;18.772;2024-01-27T00:37:36;3.10;;;0.70;;
56824;SDS011;42705;50.326;18.772;2024-01-27T00:42:58;4.10;;;0.60;;
56824;SDS011;42705;50.326;18.772;2024-01-27T00:48:20;4.20;;;0.60;;
56824;SDS011;42705;50.326;18.772;2024-01-27T00:53:42;5.50;;;0.60;;
56824;SDS011;42705;50.326;18.772;2024-01-27T00:59:04;4.60;;;1.10;;
56824;SDS011;42705;50.326;18.772;2024-01-27T01:04:25;2.70;;;0.70;;
56824;SDS011;42705;50.326;18.772;2024-01-27T01:09:48;5.30;;;0.90;;
56824;SDS011;42705;50.326;18.772;2024-01-27T01:15:10;5.20;;;0.90;;
56824;SDS011;42705;50.326;18.772;2024-01-27T01:20:32;2.70;;;0.60;;
56824;SDS011;42705;50.326;18.772;2024-01-27T01:25:54;3.60;;;0.80;;
56824;SDS011;42705;50.326;18.772;2024-01-27T01:31:16;6.30;;;1.00;;
56824;SDS011;42705;50.326;18.772;2024-01-27T01:36:38;3.70;;;0.80;;
56824;SDS011;42705;50.326;18.772;2024-01-27T01:42:00;5.00;;;0.80;;
56824;SDS011;42705;50.326;18.772;2024-01-27T01:47:22;3.70;;;0.80;;
56824;SDS011;42705;50.326;18.772;2024-01-27T01:52:44;4.80;;;0.70;;
56824;SDS011;42705;50.326;18.772;2024-01-27T01:58:06;6.50;;;0.60;;
56824;SDS011;42705;50.326;18.772;2024-01-27T02:03:28;6.00;;;0.80;;
56824;SDS011;42705;50.326;18.772;2024-01-27T02:09:02;5.50;;;1.00;;
56824;SDS011;42705;50.326;18.772;2024-01-27T02:14:24;6.60;;;0.90;;
56824;SDS011;42705;50.326;18.772;2024-01-27T02:19:48;5.20;;;1.20;;
56824;SDS011;42705;50.326;18.772;2024-01-27T02:25:10;7.00;;;0.60;;
56824;SDS011;42705;50.326;18.772;2024-01-27T02:30:32;6.20;;;0.70;;
56824;SDS011;42705;50.326;18.772;2024-01-27T02:35:54;3.60;;;0.80;;
56824;SDS011;42705;50.326;18.772;2024-01-27T02:41:21;6.90;;;1.10;;
56824;SDS011;42705;50.326;18.772;2024-01-27T02:46:43;5.50;;;1.00;;
56824;SDS011;42705;50.326;18.772;2024-01-27T02:52:06;7.40;;;0.90;;
56824;SDS011;42705;50.326;18.772;2024-01-27T02:57:27;4.60;;;0.80;;
56824;SDS011;42705;50.326;18.772;2024-01-27T03:02:49;7.10;;;0.80;;
56824;SDS011;42705;50.326;18.772;2024-01-27T03:08:11;5.60;;;0.90;;
56824;SDS011;42705;50.326;18.772;2024-01-27T03:13:33;5.80;;;1.00;;
56824;SDS011;42705;50.326;18.772;2024-01-27T03:18:55;10.20;;;1.10;;
56824;SDS011;42705;50.326;18.772;2024-01-27T03:24:17;6.80;;;0.80;;
56824;SDS011;42705;50.326;18.772;2024-01-27T03:29:38;6.80;;;1.20;;
56824;SDS011;42705;50.326;18.772;2024-01-27T03:35:00;7.80;;;1.30;;
56824;SDS011;42705;50.326;18.772;2024-01-27T03:40:23;7.60;;;1.50;;
56824;SDS011;42705;50.326;18.772;2024-01-27T03:45:45;10.00;;;1.20;;
56824;SDS011;42705;50.326;18.772;2024-01-27T03:51:07;11.70;;;1.00;;
56824;SDS011;42705;50.326;18.772;2024-01-27T03:56:29;6.70;;;1.00;;
56824;SDS011;42705;50.326;18.772;2024-01-27T04:01:51;7.50;;;0.80;;
56824;SDS011;42705;50.326;18.772;2024-01-27T04:07:13;3.00;;;0.50;;
56824;SDS011;42705;50.326;18.772;2024-01-27T04:12:36;8.00;;;1.10;;
56824;SDS011;42705;50.326;18.772;2024-01-27T04:17:57;8.40;;;0.80;;
56824;SDS011;42705;50.326;18.772;2024-01-27T04:23:19;9.90;;;1.00;;
56824;SDS011;42705;50.326;18.772;2024-01-27T04:28:41;10.30;;;1.40;;
56824;SDS011;42705;50.326;18.772;2024-01-27T04:34:03;7.20;;;0.90;;
56824;SDS011;42705;50.326;18.772;2024-01-27T04:39:25;8.50;;;1.30;;
56824;SDS011;42705;50.326;18.772;2024-01-27T04:44:47;8.40;;;1.10;;
56824;SDS011;42705;50.326;18.772;2024-01-27T04:50:09;5.00;;;0.90;;
56824;SDS011;42705;50.326;18.772;2024-01-27T04:55:31;5.60;;;1.00;;
56824;SDS011;42705;50.326;18.772;2024-01-27T05:00:53;6.20;;;1.20;;
56824;SDS011;42705;50.326;18.772;2024-01-27T05:06:15;5.10;;;1.20;;
56824;SDS011;42705;50.326;18.772;2024-01-27T05:11:38;6.20;;;1.00;;
56824;SDS011;42705;50.326;18.772;2024-01-27T05:17:00;6.90;;;0.90;;
56824;SDS011;42705;50.326;18.772;2024-01-27T05:22:22;10.70;;;1.40;;
56824;SDS011;42705;50.326;18.772;2024-01-27T05:27:44;9.10;;;1.00;;
56824;SDS011;42705;50.326;18.772;2024-01-27T05:33:06;5.40;;;0.70;;
56824;SDS011;42705;50.326;18.772;2024-01-27T05:38:28;6.60;;;1.30;;
56824;SDS011;42705;50.326;18.772;2024-01-27T05:43:51;4.50;;;1.00;;
56824;SDS011;42705;50.326;18.772;2024-01-27T05:49:13;8.30;;;1.00;;
56824;SDS011;42705;50.326;18.772;2024-01-27T05:54:35;5.80;;;0.80;;
56824;SDS011;42705;50.326;18.772;2024-01-27T05:59:57;6.50;;;1.30;;
56824;SDS011;42705;50.326;18.772;2024-01-27T06:05:19;5.10;;;0.90;;
56824;SDS011;42705;50.326;18.772;2024-01-27T06:10:41;6.30;;;1.20;;
56824;SDS011;42705;50.326;18.772;2024-01-27T06:16:06;8.20;;;1.20;;
56824;SDS011;42705;50.326;18.772;2024-01-27T06:21:30;10.00;;;1.40;;
56824;SDS011;42705;50.326;18.772;2024-01-27T06:26:52;6.30;;;1.00;;
56824;SDS011;42705;50.326;18.772;2024-01-27T06:32:14;6.30;;;1.40;;
56824;SDS011;42705;50.326;18.772;2024-01-27T06:37:37;8.20;;;1.10;;
56824;SDS011;42705;50.326;18.772;2024-01-27T06:42:59;6.80;;;1.10;;
56824;SDS011;42705;50.326;18.772;2024-01-27T06:48:20;7.20;;;0.90;;
56824;SDS011;42705;50.326;18.772;2024-01-27T06:53:42;5.70;;;0.80;;
56824;SDS011;42705;50.326;18.772;2024-01-27T06:59:04;7.40;;;0.90;;
56824;SDS011;42705;50.326;18.772;2024-01-27T07:04:26;5.90;;;1.90;;
56824;SDS011;42705;50.326;18.772;2024-01-27T07:09:48;9.60;;;1.30;;
56824;SDS011;42705;50.326;18.772;2024-01-27T07:15:09;8.60;;;1.10;;
56824;SDS011;42705;50.326;18.772;2024-01-27T07:20:31;11.30;;;1.70;;
56824;SDS011;42705;50.326;18.772;2024-01-27T07:25:54;10.50;;;1.30;;
56824;SDS011;42705;50.326;18.772;2024-01-27T07:31:15;12.60;;;1.50;;
56824;SDS011;42705;50.326;18.772;2024-01-27T07:42:00;9.10;;;1.50;;
56824;SDS011;42705;50.326;18.772;2024-01-27T07:47:22;10.10;;;1.20;;
56824;SDS011;42705;50.326;18.772;2024-01-27T07:52:44;8.70;;;1.50;;
56824;SDS011;42705;50.326;18.772;2024-01-27T07:58:06;7.20;;;1.00;;
56824;SDS011;42705;50.326;18.772;2024-01-27T08:03:27;3.70;;;0.80;;
56824;SDS011;42705;50.326;18.772;2024-01-27T08:08:49;7.00;;;1.10;;
56824;SDS011;42705;50.326;18.772;2024-01-27T08:14:11;6.70;;;1.30;;
56824;SDS011;42705;50.326;18.772;2024-01-27T08:19:33;7.50;;;1.00;;
56824;SDS011;42705;50.326;18.772;2024-01-27T08:24:55;7.30;;;1.40;;
56824;SDS011;42705;50.326;18.772;2024-01-27T08:30:17;8.30;;;1.40;;
56824;SDS011;42705;50.326;18.772;2024-01-27T08:35:39;5.40;;;1.00;;
56824;SDS011;42705;50.326;18.772;2024-01-27T08:41:00;4.80;;;1.10;;
56824;SDS011;42705;50.326;18.772;2024-01-27T08:46:22;5.60;;;1.20;;
56824;SDS011;42705;50.326;18.772;2024-01-27T08:51:44;4.40;;;0.90;;
56824;SDS011;42705;50.326;18.772;2024-01-27T08:57:06;6.40;;;1.20;;
56824;SDS011;42705;50.326;18.772;2024-01-27T09:02:28;4.80;;;1.10;;
56824;SDS011;42705;50.326;18.772;2024-01-27T09:07:52;9.50;;;1.30;;
56824;SDS011;42705;50.326;18.772;2024-01-27T09:13:14;7.00;;;1.00;;
56824;SDS011;42705;50.326;18.772;2024-01-27T09:18:35;6.30;;;1.10;;
56824;SDS011;42705;50.326;18.772;2024-01-27T09:23:58;7.40;;;1.10;;
56824;SDS011;42705;50.326;18.772;2024-01-27T09:29:20;4.60;;;1.30;;
56824;SDS011;42705;50.326;18.772;2024-01-27T09:34:42;7.70;;;1.10;;
56824;SDS011;42705;50.326;18.772;2024-01-27T09:40:04;3.90;;;1.40;;
56824;SDS011;42705;50.326;18.772;2024-01-27T09:45:26;8.50;;;1.90;;
56824;SDS011;42705;50.326;18.772;2024-01-27T09:50:50;7.10;;;1.50;;
56824;SDS011;42705;50.326;18.772;2024-01-27T09:56:13;8.50;;;1.40;;
56824;SDS011;42705;50.326;18.772;2024-01-27T10:01:42;9.00;;;1.20;;
56824;SDS011;42705;50.326;18.772;2024-01-27T10:07:05;6.60;;;1.40;;
56824;SDS011;42705;50.326;18.772;2024-01-27T10:12:28;12.10;;;1.30;;
56824;SDS011;42705;50.326;18.772;2024-01-27T10:17:50;9.60;;;1.70;;
56824;SDS011;42705;50.326;18.772;2024-01-27T10:23:12;8.20;;;1.50;;
56824;SDS011;42705;50.326;18.772;2024-01-27T10:28:35;8.80;;;1.20;;
56824;SDS011;42705;50.326;18.772;2024-01-27T10:33:57;11.60;;;1.80;;
56824;SDS011;42705;50.326;18.772;2024-01-27T10:39:20;9.10;;;1.20;;
56824;SDS011;42705;50.326;18.772;2024-01-27T10:44:44;6.10;;;1.40;;
56824;SDS011;42705;50.326;18.772;2024-01-27T10:50:08;5.50;;;0.90;;
56824;SDS011;42705;50.326;18.772;2024-01-27T10:55:33;3.60;;;1.30;;
56824;SDS011;42705;50.326;18.772;2024-01-27T11:00:57;5.30;;;1.20;;
56824;SDS011;42705;50.326;18.772;2024-01-27T11:06:21;8.90;;;1.80;;
56824;SDS011;42705;50.326;18.772;2024-01-27T11:11:44;5.60;;;1.20;;
56824;SDS011;42705;50.326;18.772;2024-01-27T11:17:08;12.80;;;1.60;;
56824;SDS011;42705;50.326;18.772;2024-01-27T11:22:30;6.90;;;1.60;;
56824;SDS011;42705;50.326;18.772;2024-01-27T11:27:54;4.60;;;1.20;;
56824;SDS011;42705;50.326;18.772;2024-01-27T11:33:17;8.20;;;1.50;;
56824;SDS011;42705;50.326;18.772;2024-01-27T11:38:40;5.90;;;1.50;;
56824;SDS011;42705;50.326;18.772;2024-01-27T11:44:02;5.80;;;1.40;;
56824;SDS011;42705;50.326;18.772;2024-01-27T11:49:24;8.10;;;1.60;;
56824;SDS011;42705;50.326;18.772;2024-01-27T11:54:45;7.70;;;1.50;;
56824;SDS011;42705;50.326;18.772;2024-01-27T12:00:07;7.10;;;1.50;;
56824;SDS011;42705;50.326;18.772;2024-01-27T12:05:31;11.80;;;2.10;;
56824;SDS011;42705;50.326;18.772;2024-01-27T12:10:53;9.00;;;2.00;;
56824;SDS011;42705;50.326;18.772;2024-01-27T12:16:15;8.40;;;1.60;;
56824;SDS011;42705;50.326;18.772;2024-01-27T12:21:38;9.00;;;2.30;;
56824;SDS011;42705;50.326;18.772;2024-01-27T12:27:08;12.30;;;2.70;;
56824;SDS011;42705;50.326;18.772;2024-01-27T12:32:30;11.70;;;1.90;;
56824;SDS011;42705;50.326;18.772;2024-01-27T12:38:00;7.70;;;1.60;;
56824;SDS011;42705;50.326;18.772;2024-01-27T12:43:23;10.30;;;1.90;;
56824;SDS011;42705;50.326;18.772;2024-01-27T12:48:45;9.80;;;1.90;;
56824;SDS011;42705;50.326;18.772;2024-01-27T12:54:07;10.40;;;2.10;;
56824;SDS011;42705;50.326;18.772;2024-01-27T12:59:29;7.20;;;2.10;;
56824;SDS011;42705;50.326;18.772;2024-01-27T13:04:52;13.40;;;2.20;;
56824;SDS011;42705;50.326;18.772;2024-01-27T13:10:14;11.30;;;1.90;;
56824;SDS011;42705;50.326;18.772;2024-01-27T13:15:36;13.40;;;2.20;;
56824;SDS011;42705;50.326;18.772;2024-01-27T13:20:58;8.50;;;1.60;;
56824;SDS011;42705;50.326;18.772;2024-01-27T13:26:20;7.50;;;2.30;;
56824;SDS011;42705;50.326;18.772;2024-01-27T13:31:42;11.10;;;2.50;;
56824;SDS011;42705;50.326;18.772;2024-01-27T13:37:06;10.90;;;2.60;;
56824;SDS011;42705;50.326;18.772;2024-01-27T13:42:28;6.90;;;2.20;;
56824;SDS011;42705;50.326;18.772;2024-01-27T13:47:50;10.10;;;2.10;;
56824;SDS011;42705;50.326;18.772;2024-01-27T13:53:13;13.10;;;2.60;;
56824;SDS011;42705;50.326;18.772;2024-01-27T13:58:35;10.20;;;2.40;;
56824;SDS011;42705;50.326;18.772;2024-01-27T14:03:57;12.20;;;2.40;;
56824;SDS011;42705;50.326;18.772;2024-01-27T14:09:23;11.30;;;3.20;;
56824;SDS011;42705;50.326;18.772;2024-01-27T14:14:45;12.50;;;2.20;;
56824;SDS011;42705;50.326;18.772;2024-01-27T14:20:07;10.70;;;2.40;;
56824;SDS011;42705;50.326;18.772;2024-01-27T14:25:30;12.90;;;2.30;;
56824;SDS011;42705;50.326;18.772;2024-01-27T14:30:52;8.90;;;2.70;;
56824;SDS011;42705;50.326;18.772;2024-01-27T14:36:14;4.70;;;1.70;;
56824;SDS011;42705;50.326;18.772;2024-01-27T14:41:38;10.20;;;2.60;;
56824;SDS011;42705;50.326;18.772;2024-01-27T14:47:00;9.60;;;2.90;;
56824;SDS011;42705;50.326;18.772;2024-01-27T14:52:25;8.00;;;2.90;;
56824;SDS011;42705;50.326;18.772;2024-01-27T14:57:51;9.80;;;3.40;;
56824;SDS011;42705;50.326;18.772;2024-01-27T15:03:13;14.60;;;3.80;;
56824;SDS011;42705;50.326;18.772;2024-01-27T15:08:35;11.20;;;3.50;;
56824;SDS011;42705;50.326;18.772;2024-01-27T15:13:58;9.90;;;3.00;;
56824;SDS011;42705;50.326;18.772;2024-01-27T15:19:19;11.10;;;3.40;;
56824;SDS011;42705;50.326;18.772;2024-01-27T15:24:41;8.30;;;2.10;;
56824;SDS011;42705;50.326;18.772;2024-01-27T15:30:04;10.50;;;2.10;;
56824;SDS011;42705;50.326;18.772;2024-01-27T15:35:28;9.80;;;2.00;;
56824;SDS011;42705;50.326;18.772;2024-01-27T15:40:54;10.40;;;2.60;;
56824;SDS011;42705;50.326;18.772;2024-01-27T15:46:17;8.30;;;1.90;;
56824;SDS011;42705;50.326;18.772;2024-01-27T15:57:02;9.20;;;2.50;;
56824;SDS011;42705;50.326;18.772;2024-01-27T16:02:24;9.40;;;2.60;;
56824;SDS011;42705;50.326;18.772;2024-01-27T16:07:46;8.90;;;2.30;;
56824;SDS011;42705;50.326;18.772;2024-01-27T16:13:11;11.20;;;2.30;;
56824;SDS011;42705;50.326;18.772;2024-01-27T16:18:33;8.60;;;2.60;;
56824;SDS011;42705;50.326;18.772;2024-01-27T16:23:55;13.60;;;3.80;;
56824;SDS011;42705;50.326;18.772;2024-01-27T16:34:39;18.30;;;5.50;;
56824;SDS011;42705;50.326;18.772;2024-01-27T16:40:01;14.10;;;5.10;;
56824;SDS011;42705;50.326;18.772;2024-01-27T16:45:23;12.20;;;3.30;;
56824;SDS011;42705;50.326;18.772;2024-01-27T16:50:45;17.00;;;3.30;;
56824;SDS011;42705;50.326;18.772;2024-01-27T16:56:08;9.00;;;2.20;;
56824;SDS011;42705;50.326;18.772;2024-01-27T17:01:30;12.10;;;3.00;;
56824;SDS011;42705;50.326;18.772;2024-01-27T17:06:52;13.70;;;3.10;;
56824;SDS011;42705;50.326;18.772;2024-01-27T17:12:13;11.60;;;3.80;;
56824;SDS011;42705;50.326;18.772;2024-01-27T17:17:35;12.40;;;3.20;;
56824;SDS011;42705;50.326;18.772;2024-01-27T17:22:57;10.10;;;3.10;;
56824;SDS011;42705;50.326;18.772;2024-01-27T17:28:19;11.00;;;3.20;;
56824;SDS011;42705;50.326;18.772;2024-01-27T17:33:41;9.90;;;3.00;;
56824;SDS011;42705;50.326;18.772;2024-01-27T17:39:04;10.50;;;3.10;;
56824;SDS011;42705;50.326;18.772;2024-01-27T17:44:26;8.50;;;2.10;;
56824;SDS011;42705;50.326;18.772;2024-01-27T17:49:48;9.40;;;2.60;;
56824;SDS011;42705;50.326;18.772;2024-01-27T17:55:10;15.40;;;4.00;;
56824;SDS011;42705;50.326;18.772;2024-01-27T18:00:32;9.70;;;2.70;;
56824;SDS011;42705;50.326;18.772;2024-01-27T18:05:54;9.00;;;2.30;;
56824;SDS011;42705;50.326;18.772;2024-01-27T18:11:16;8.70;;;2.20;;
56824;SDS011;42705;50.326;18.772;2024-01-27T18:16:39;10.40;;;2.70;;
56824;SDS011;42705;50.326;18.772;2024-01-27T18:22:01;11.30;;;2.50;;
56824;SDS011;42705;50.326;18.772;2024-01-27T18:27:26;15.40;;;4.50;;
56824;SDS011;42705;50.326;18.772;2024-01-27T18:32:48;15.50;;;4.70;;
56824;SDS011;42705;50.326;18.772;2024-01-27T18:38:10;16.10;;;3.60;;
56824;SDS011;42705;50.326;18.772;2024-01-27T18:43:32;14.60;;;4.40;;
56824;SDS011;42705;50.326;18.772;2024-01-27T18:48:54;12.00;;;3.30;;
56824;SDS011;42705;50.326;18.772;2024-01-27T18:54:16;13.20;;;3.70;;
56824;SDS011;42705;50.326;18.772;2024-01-27T18:59:40;12.80;;;3.10;;
56824;SDS011;42705;50.326;18.772;2024-01-27T19:05:02;16.40;;;5.40;;
56824;SDS011;42705;50.326;18.772;2024-01-27T19:10:29;20.70;;;5.70;;
56824;SDS011;42705;50.326;18.772;2024-01-27T19:15:51;19.90;;;5.20;;
56824;SDS011;42705;50.326;18.772;2024-01-27T19:21:16;16.10;;;5.10;;
56824;SDS011;42705;50.326;18.772;2024-01-27T19:26:38;23.00;;;6.20;;
56824;SDS011;42705;50.326;18.772;2024-01-27T19:32:00;20.70;;;6.00;;
56824;SDS011;42705;50.326;18.772;2024-01-27T19:37:23;17.30;;;5.80;;
56824;SDS011;42705;50.326;18.772;2024-01-27T19:42:45;19.40;;;4.70;;
56824;SDS011;42705;50.326;18.772;2024-01-27T19:48:07;13.30;;;4.20;;
56824;SDS011;42705;50.326;18.772;2024-01-27T19:53:31;16.00;;;4.20;;
56824;SDS011;42705;50.326;18.772;2024-01-27T19:58:53;14.90;;;4.70;;
56824;SDS011;42705;50.326;18.772;2024-01-27T20:04:15;16.80;;;5.20;;
56824;SDS011;42705;50.326;18.772;2024-01-27T20:09:37;11.90;;;3.70;;
56824;SDS011;42705;50.326;18.772;2024-01-27T20:14:59;13.10;;;4.30;;
56824;SDS011;42705;50.326;18.772;2024-01-27T20:20:21;20.50;;;5.20;;
56824;SDS011;42705;50.326;18.772;2024-01-27T20:25:43;21.20;;;6.00;;
56824;SDS011;42705;50.326;18.772;2024-01-27T20:31:07;18.00;;;5.20;;
56824;SDS011;42705;50.326;18.772;2024-01-27T20:36:30;15.10;;;4.80;;
56824;SDS011;42705;50.326;18.772;2024-01-27T20:41:52;14.30;;;4.00;;
56824;SDS011;42705;50.326;18.772;2024-01-27T20:47:14;12.40;;;3.70;;
56824;SDS011;42705;50.326;18.772;2024-01-27T20:52:38;17.10;;;3.70;;
56824;SDS011;42705;50.326;18.772;2024-01-27T20:58:01;14.30;;;4.00;;
56824;SDS011;42705;50.326;18.772;2024-01-27T21:03:24;14.90;;;5.50;;
56824;SDS011;42705;50.326;18.772;2024-01-27T21:08:46;21.40;;;6.60;;
56824;SDS011;42705;50.326;18.772;2024-01-27T21:14:07;25.00;;;7.70;;
56824;SDS011;42705;50.326;18.772;2024-01-27T21:19:29;27.30;;;8.00;;
56824;SDS011;42705;50.326;18.772;2024-01-27T21:24:52;25.20;;;9.30;;
56824;SDS011;42705;50.326;18.772;2024-01-27T21:30:14;26.00;;;7.30;;
56824;SDS011;42705;50.326;18.772;2024-01-27T21:35:36;21.70;;;6.80;;
56824;SDS011;42705;50.326;18.772;2024-01-27T21:40:58;22.80;;;7.10;;
56824;SDS011;42705;50.326;18.772;2024-01-27T21:46:19;24.70;;;6.70;;
56824;SDS011;42705;50.326;18.772;2024-01-27T21:51:47;20.70;;;6.30;;
56824;SDS011;42705;50.326;18.772;2024-01-27T21:57:10;17.60;;;5.80;;
56824;SDS011;42705;50.326;18.772;2024-01-27T22:02:32;22.20;;;6.00;;
56824;SDS011;42705;50.326;18.772;2024-01-27T22:07:56;22.00;;;5.60;;
56824;SDS011;42705;50.326;18.772;2024-01-27T22:13:19;21.20;;;6.10;;
56824;SDS011;42705;50.326;18.772;2024-01-27T22:18:41;20.70;;;6.50;;
56824;SDS011;42705;50.326;18.772;2024-01-27T22:24:05;18.30;;;5.90;;
56824;SDS011;42705;50.326;18.772;2024-01-27T22:29:30;19.00;;;5.60;;
56824;SDS011;42705;50.326;18.772;2024-01-27T22:34:53;16.10;;;5.50;;
56824;SDS011;42705;50.326;18.772;2024-01-27T22:40:18;17.90;;;5.00;;
56824;SDS011;42705;50.326;18.772;2024-01-27T22:45:40;24.40;;;5.90;;
56824;SDS011;42705;50.326;18.772;2024-01-27T22:51:02;14.30;;;5.40;;
56824;SDS011;42705;50.326;18.772;2024-01-27T22:56:24;21.90;;;5.60;;
56824;SDS011;42705;50.326;18.772;2024-01-27T23:01:46;17.90;;;5.70;;
56824;SDS011;42705;50.326;18.772;2024-01-27T23:07:09;18.80;;;5.70;;
56824;SDS011;42705;50.326;18.772;2024-01-27T23:12:31;16.30;;;5.10;;
56824;SDS011;42705;50.326;18.772;2024-01-27T23:17:53;11.40;;;4.70;;
56824;SDS011;42705;50.326;18.772;2024-01-27T23:23:15;19.60;;;5.10;;
56824;SDS011;42705;50.326;18.772;2024-01-27T23:28:37;19.00;;;5.30;;
56824;SDS011;42705;50.326;18.772;2024-01-27T23:33:59;17.10;;;5.80;;
56824;SDS011;42705;50.326;18.772;2024-01-27T23:39:20;17.00;;;5.20;;
56824;SDS011;42705;50.326;18.772;2024-01-27T23:44:42;19.60;;;6.30;;
56824;SDS011;42705;50.326;18.772;2024-01-27T23:50:05;15.20;;;5.30;;
56824;SDS011;42705;50.326;18.772;2024-01-27T23:55:27;17.30;;;5.70;;
